Time;durP1;ratioP1;P1;durP2;ratioP2;P2;SDS_P1;SDS_P2;PMS_P1;PMS_P2;Temp;Humidity;BMP_temperature;BMP_pressure;BME280_temperature;BME280_humidity;BME280_pressure;Samples;Min_cycle;Max_cycle;Signal;HPM_P1;HPM_P2
2022/10/31 00:02:08;;;;;;;16.98;9.60;;;13.80;99.90;;;;;;4859979;29;20145;-75
2022/10/31 00:04:33;;;;;;;16.23;9.68;;;13.70;99.90;;;;;;4861233;29;20057;-75
2022/10/31 00:06:59;;;;;;;16.40;9.45;;;13.60;99.90;;;;;;4860137;29;20076;-74
2022/10/31 00:09:25;;;;;;;15.20;9.43;;;13.60;99.90;;;;;;4861388;29;20097;-74
2022/10/31 00:11:50;;;;;;;16.05;9.52;;;13.50;99.90;;;;;;4860631;29;20132;-75
2022/10/31 00:14:16;;;;;;;21.98;11.05;;;13.50;99.90;;;;;;4860926;29;20058;-74
2022/10/31 00:16:42;;;;;;;16.17;9.73;;;13.50;99.90;;;;;;4844652;29;20554;-75
2022/10/31 00:19:07;;;;;;;15.48;8.95;;;13.40;99.90;;;;;;4859509;29;20064;-74
2022/10/31 00:21:34;;;;;;;16.80;9.93;;;13.40;99.90;;;;;;4860450;29;20185;-75
2022/10/31 00:24:00;;;;;;;16.80;10.23;;;13.40;99.90;;;;;;4844351;29;20054;-75
2022/10/31 00:26:29;;;;;;;17.65;10.65;;;13.30;99.90;;;;;;4861327;29;20060;-75
2022/10/31 00:28:56;;;;;;;20.42;10.65;;;13.30;99.90;;;;;;4862969;29;20041;-75
2022/10/31 00:31:21;;;;;;;19.52;10.63;;;13.30;99.90;;;;;;4862871;29;20080;-75
2022/10/31 00:33:47;;;;;;;17.00;10.10;;;13.20;99.90;;;;;;4847932;29;20144;-75
2022/10/31 00:36:15;;;;;;;16.80;10.55;;;13.30;99.90;;;;;;4833238;29;20400;-75
2022/10/31 00:38:45;;;;;;;20.27;9.80;;;13.20;99.90;;;;;;4863168;29;20084;-75
2022/10/31 00:41:12;;;;;;;16.80;9.57;;;13.20;99.90;;;;;;4863094;29;20057;-75
2022/10/31 00:43:38;;;;;;;15.50;9.48;;;13.10;99.90;;;;;;4862894;29;20064;-75
2022/10/31 00:46:04;;;;;;;16.23;9.45;;;13.10;99.90;;;;;;4864373;29;20410;-75
2022/10/31 00:48:30;;;;;;;17.05;9.43;;;13.10;99.90;;;;;;4848196;29;20054;-75
2022/10/31 00:50:56;;;;;;;15.02;9.65;;;13.10;99.90;;;;;;4863332;29;20478;-75
2022/10/31 00:53:22;;;;;;;17.42;10.50;;;13.10;99.90;;;;;;4863759;29;20431;-75
2022/10/31 00:55:48;;;;;;;19.75;10.55;;;13.00;99.90;;;;;;4863825;29;20092;-75
2022/10/31 00:58:13;;;;;;;17.77;10.15;;;13.00;99.90;;;;;;4832216;29;20093;-75
2022/10/31 01:00:39;;;;;;;20.60;10.93;;;13.00;99.90;;;;;;4862452;29;20506;-75
2022/10/31 01:03:05;;;;;;;20.20;10.75;;;13.00;99.90;;;;;;4863663;29;20505;-75
2022/10/31 01:05:31;;;;;;;19.52;10.77;;;13.00;99.90;;;;;;4862751;29;20057;-75
2022/10/31 01:07:56;;;;;;;17.70;10.95;;;12.90;99.90;;;;;;4863594;29;20059;-75
2022/10/31 01:10:22;;;;;;;16.52;9.52;;;12.90;99.90;;;;;;4862249;29;20140;-75
2022/10/31 01:12:49;;;;;;;17.92;10.00;;;12.90;99.90;;;;;;4863091;29;20101;-75
2022/10/31 01:15:18;;;;;;;19.00;9.73;;;12.80;99.90;;;;;;4862442;29;20118;-75
2022/10/31 01:17:43;;;;;;;16.52;9.60;;;12.80;99.90;;;;;;4863006;29;20068;-74
2022/10/31 01:20:11;;;;;;;19.90;10.30;;;12.80;99.90;;;;;;4863454;29;20053;-74
2022/10/31 01:22:37;;;;;;;17.60;10.18;;;12.80;99.90;;;;;;4846477;29;20053;-75
2022/10/31 01:25:03;;;;;;;18.63;11.13;;;12.80;99.90;;;;;;4863765;29;20045;-75
2022/10/31 01:27:30;;;;;;;15.38;10.35;;;12.80;99.90;;;;;;4863201;29;20193;-75
2022/10/31 01:29:56;;;;;;;20.27;11.13;;;12.70;99.90;;;;;;4863131;29;20042;-75
2022/10/31 01:32:21;;;;;;;18.00;10.23;;;12.70;99.90;;;;;;4863416;29;20054;-75
2022/10/31 01:34:47;;;;;;;16.70;10.70;;;12.70;99.90;;;;;;4863123;29;20049;-75
2022/10/31 01:37:13;;;;;;;15.35;10.57;;;12.70;99.90;;;;;;4862381;29;20088;-75
2022/10/31 01:39:38;;;;;;;21.40;10.38;;;12.70;99.90;;;;;;4862462;29;20053;-75
2022/10/31 01:42:04;;;;;;;19.23;11.05;;;12.70;99.90;;;;;;4862979;29;20062;-75
2022/10/31 01:44:30;;;;;;;18.05;10.43;;;12.60;99.90;;;;;;4862832;29;20136;-75
2022/10/31 01:46:58;;;;;;;18.25;10.93;;;12.60;99.90;;;;;;4861939;29;20049;-75
2022/10/31 01:49:40;;;;;;;18.27;10.52;;;12.60;99.90;;;;;;4861654;29;20050;-75
2022/10/31 01:52:30;;;;;;;16.98;10.27;;;12.60;99.90;;;;;;4861734;29;20065;-75
2022/10/31 01:55:11;;;;;;;20.30;10.70;;;12.60;99.90;;;;;;4862853;29;20105;-75
2022/10/31 01:57:40;;;;;;;20.52;10.52;;;12.60;99.90;;;;;;4862941;29;20167;-75
2022/10/31 02:00:09;;;;;;;17.65;10.90;;;12.60;99.90;;;;;;4872640;29;20110;-75
2022/10/31 02:02:35;;;;;;;14.57;10.00;;;12.60;99.90;;;;;;4864896;29;20505;-75
2022/10/31 02:05:05;;;;;;;16.38;10.13;;;12.60;99.90;;;;;;4881265;29;20059;-75
2022/10/31 02:07:39;;;;;;;19.73;11.13;;;12.60;99.90;;;;;;4881584;29;20060;-75
2022/10/31 02:10:05;;;;;;;16.80;10.13;;;12.60;99.90;;;;;;4880324;29;20044;-75
2022/10/31 02:12:32;;;;;;;18.70;10.52;;;12.50;99.90;;;;;;4879983;29;20482;-75
2022/10/31 02:15:00;;;;;;;20.20;10.55;;;12.50;99.90;;;;;;4880265;29;20053;-75
2022/10/31 02:17:26;;;;;;;19.52;10.27;;;12.50;99.90;;;;;;4880353;29;20507;-75
2022/10/31 02:19:55;;;;;;;18.95;10.82;;;12.50;99.90;;;;;;4879527;29;20060;-75
2022/10/31 02:22:49;;;;;;;20.50;11.30;;;12.50;99.90;;;;;;4880335;29;20053;-75
2022/10/31 02:25:41;;;;;;;16.48;10.55;;;12.50;99.90;;;;;;4879789;29;20053;-75
2022/10/31 02:28:30;;;;;;;16.05;9.80;;;12.50;99.90;;;;;;4880223;29;20097;-75
2022/10/31 02:31:31;;;;;;;18.02;10.48;;;12.40;99.90;;;;;;4864278;29;20052;-76
2022/10/31 02:34:18;;;;;;;21.65;10.80;;;12.50;99.90;;;;;;4856551;29;20116;-76
2022/10/31 02:37:15;;;;;;;14.02;10.00;;;12.40;99.90;;;;;;4879766;29;20137;-75
2022/10/31 02:39:51;;;;;;;20.00;10.60;;;12.40;99.90;;;;;;4880543;29;20045;-75
2022/10/31 02:42:27;;;;;;;17.25;10.02;;;12.40;99.90;;;;;;4880881;29;20045;-75
2022/10/31 02:45:28;;;;;;;15.65;10.05;;;12.30;99.90;;;;;;4879293;29;20050;-75
2022/10/31 02:47:58;;;;;;;18.77;9.98;;;12.30;99.90;;;;;;4878647;29;20064;-75
2022/10/31 02:50:31;;;;;;;16.85;9.75;;;12.30;99.90;;;;;;4878315;29;20088;-75
2022/10/31 02:52:56;;;;;;;17.02;9.30;;;12.30;99.90;;;;;;4879838;29;20082;-75
2022/10/31 02:55:25;;;;;;;14.50;9.30;;;12.20;99.90;;;;;;4880220;29;20053;-75
2022/10/31 02:58:00;;;;;;;14.93;10.07;;;12.20;99.90;;;;;;4879257;29;20096;-75
2022/10/31 03:00:27;;;;;;;13.10;8.85;;;12.20;99.90;;;;;;4879258;29;20064;-75
2022/10/31 03:02:58;;;;;;;12.50;8.57;;;11.50;99.90;;;;;;4879002;29;20056;-75
2022/10/31 03:05:36;;;;;;;14.20;9.10;;;12.10;99.90;;;;;;4863993;29;20080;-75
2022/10/31 03:08:11;;;;;;;15.63;9.27;;;12.10;99.90;;;;;;4863950;29;20087;-75
2022/10/31 03:11:01;;;;;;;16.98;9.60;;;12.10;99.90;;;;;;4879293;29;20049;-74
2022/10/31 03:13:56;;;;;;;18.83;9.88;;;12.10;99.90;;;;;;4879196;29;20060;-75
2022/10/31 03:16:34;;;;;;;16.60;9.32;;;12.10;99.90;;;;;;4872317;29;20205;-75
2022/10/31 03:19:05;;;;;;;19.38;10.82;;;12.00;99.90;;;;;;4880100;29;20064;-75
2022/10/31 03:21:37;;;;;;;17.55;10.95;;;12.00;99.90;;;;;;4879718;29;20044;-75
2022/10/31 03:24:06;;;;;;;19.60;11.40;;;12.00;99.90;;;;;;4863632;29;20053;-75
2022/10/31 03:26:34;;;;;;;21.23;11.63;;;12.00;99.90;;;;;;4879840;29;20049;-75
2022/10/31 03:29:06;;;;;;;20.13;11.70;;;12.00;99.90;;;;;;4878821;29;20076;-75
2022/10/31 03:31:52;;;;;;;17.60;10.75;;;12.00;99.90;;;;;;4879781;29;20056;-75
2022/10/31 03:34:19;;;;;;;17.38;10.55;;;12.00;99.90;;;;;;4878890;29;20053;-76
2022/10/31 03:36:51;;;;;;;17.73;11.15;;;12.00;99.90;;;;;;4878860;29;20053;-75
2022/10/31 03:39:20;;;;;;;21.17;11.27;;;12.00;99.90;;;;;;4880118;29;20045;-75
2022/10/31 03:41:57;;;;;;;20.38;11.85;;;12.00;99.90;;;;;;4878444;29;20305;-75
2022/10/31 03:44:25;;;;;;;18.52;11.07;;;11.90;99.90;;;;;;4879879;29;20056;-75
2022/10/31 03:46:51;;;;;;;18.85;11.68;;;11.90;99.90;;;;;;4862970;29;20131;-75
2022/10/31 03:49:17;;;;;;;19.85;11.75;;;11.90;99.90;;;;;;4878442;29;20127;-75
2022/10/31 03:51:55;;;;;;;18.77;11.18;;;11.90;99.90;;;;;;4877872;29;20056;-75
2022/10/31 03:54:31;;;;;;;19.35;12.25;;;11.90;99.90;;;;;;4863521;29;20397;-75
2022/10/31 03:57:04;;;;;;;15.60;10.82;;;11.80;99.90;;;;;;4880014;29;20059;-74
2022/10/31 03:59:35;;;;;;;20.08;11.88;;;11.80;99.90;;;;;;4879713;29;20096;-74
2022/10/31 04:02:10;;;;;;;18.30;11.32;;;11.80;99.90;;;;;;4879813;29;20108;-75
2022/10/31 04:04:37;;;;;;;18.30;10.93;;;11.80;99.90;;;;;;4881698;29;20128;-74
2022/10/31 04:07:05;;;;;;;19.42;12.02;;;11.80;99.90;;;;;;4882267;29;20052;-75
2022/10/31 04:09:34;;;;;;;17.77;10.32;;;11.70;99.90;;;;;;4883081;29;20132;-75
2022/10/31 04:12:03;;;;;;;16.67;11.10;;;11.70;99.90;;;;;;4866699;29;20049;-75
2022/10/31 04:14:30;;;;;;;18.40;12.55;;;11.70;99.90;;;;;;4882034;29;20044;-75
2022/10/31 04:16:56;;;;;;;21.90;11.88;;;11.70;99.90;;;;;;4883176;29;20053;-75
2022/10/31 04:19:22;;;;;;;18.15;10.50;;;11.70;99.90;;;;;;4866281;29;20532;-75
2022/10/31 04:21:48;;;;;;;16.02;10.35;;;11.70;99.90;;;;;;4866696;29;20053;-75
2022/10/31 04:24:13;;;;;;;17.38;10.82;;;11.60;99.90;;;;;;4882044;29;20084;-75
2022/10/31 04:26:39;;;;;;;17.30;10.82;;;11.60;99.90;;;;;;4882944;29;20053;-75
2022/10/31 04:29:05;;;;;;;19.67;11.13;;;11.60;99.90;;;;;;4866288;29;20053;-75
2022/10/31 04:31:30;;;;;;;18.80;11.45;;;11.60;99.90;;;;;;4882851;29;20402;-75
2022/10/31 04:33:56;;;;;;;23.33;13.02;;;11.60;99.90;;;;;;4850992;29;20144;-75
2022/10/31 04:36:22;;;;;;;19.20;11.35;;;11.50;99.90;;;;;;4881738;29;20064;-76
2022/10/31 04:38:47;;;;;;;17.27;11.20;;;11.50;99.90;;;;;;4881680;29;20158;-76
2022/10/31 04:41:13;;;;;;;18.88;11.18;;;11.50;99.90;;;;;;4881789;29;20041;-75
2022/10/31 04:43:39;;;;;;;16.17;11.23;;;11.50;99.90;;;;;;4881780;29;20071;-75
2022/10/31 04:46:05;;;;;;;17.42;11.93;;;11.50;99.90;;;;;;4881972;29;20049;-75
2022/10/31 04:48:30;;;;;;;18.70;12.38;;;11.40;99.90;;;;;;4882326;29;20049;-76
2022/10/31 04:51:00;;;;;;;18.92;12.30;;;11.40;99.90;;;;;;4881366;29;20128;-75
2022/10/31 04:53:26;;;;;;;20.10;12.40;;;11.40;99.90;;;;;;4850146;29;20127;-75
2022/10/31 04:55:52;;;;;;;19.10;11.27;;;11.40;99.90;;;;;;4883078;29;20401;-75
2022/10/31 04:58:18;;;;;;;19.17;12.18;;;11.40;99.90;;;;;;4881536;29;20049;-75
2022/10/31 05:00:43;;;;;;;19.58;12.82;;;11.40;99.90;;;;;;4881230;29;20056;-76
2022/10/31 05:03:09;;;;;;;20.27;13.23;;;11.40;99.90;;;;;;4865984;29;20077;-74
2022/10/31 05:05:35;;;;;;;18.40;12.57;;;11.30;99.90;;;;;;4881263;29;20085;-76
2022/10/31 05:08:00;;;;;;;19.55;12.27;;;11.30;99.90;;;;;;4880980;29;20053;-76
2022/10/31 05:10:28;;;;;;;18.70;11.70;;;11.30;99.90;;;;;;4882045;29;20052;-76
2022/10/31 05:13:00;;;;;;;20.85;13.00;;;11.30;99.90;;;;;;4880413;29;20564;-76
2022/10/31 05:15:26;;;;;;;21.55;12.48;;;11.30;99.90;;;;;;4881398;29;20406;-75
2022/10/31 05:17:53;;;;;;;20.52;12.35;;;11.40;99.90;;;;;;4881281;29;20422;-76
2022/10/31 05:20:20;;;;;;;21.80;12.55;;;11.30;99.90;;;;;;4881403;29;20103;-76
2022/10/31 05:22:49;;;;;;;19.73;12.60;;;11.30;99.90;;;;;;4881360;29;20052;-75
2022/10/31 05:25:15;;;;;;;21.60;13.02;;;11.30;99.90;;;;;;4880590;29;20061;-76
2022/10/31 05:27:42;;;;;;;19.33;13.38;;;11.30;99.90;;;;;;4881844;29;20053;-75
2022/10/31 05:30:09;;;;;;;18.75;11.73;;;11.30;99.90;;;;;;4880286;29;20053;-75
2022/10/31 05:32:44;;;;;;;20.58;12.73;;;11.30;99.90;;;;;;4880834;29;20049;-75
2022/10/31 05:35:16;;;;;;;19.00;12.48;;;11.30;99.90;;;;;;4880807;29;20406;-74
2022/10/31 05:37:42;;;;;;;17.05;12.35;;;11.30;99.90;;;;;;4880707;29;20052;-75
2022/10/31 05:40:09;;;;;;;16.25;11.38;;;11.20;99.90;;;;;;4881682;29;20041;-74
2022/10/31 05:42:35;;;;;;;19.42;11.68;;;11.20;99.90;;;;;;4881691;29;20059;-74
2022/10/31 05:45:01;;;;;;;17.17;12.23;;;11.20;99.90;;;;;;4880729;29;20136;-74
2022/10/31 05:47:27;;;;;;;16.45;11.68;;;11.20;99.90;;;;;;4881548;29;20156;-75
2022/10/31 05:49:53;;;;;;;16.98;12.55;;;11.20;99.90;;;;;;4864634;29;20045;-75
2022/10/31 05:52:18;;;;;;;20.67;12.02;;;11.20;99.90;;;;;;4879733;29;20053;-74
2022/10/31 05:54:44;;;;;;;20.88;12.57;;;11.20;99.90;;;;;;4880207;29;20113;-75
2022/10/31 05:57:10;;;;;;;21.20;13.35;;;11.20;99.90;;;;;;4849641;29;20056;-74
2022/10/31 05:59:35;;;;;;;18.83;12.82;;;11.20;99.90;;;;;;4880489;29;20109;-74
2022/10/31 06:02:01;;;;;;;18.92;12.68;;;11.20;99.90;;;;;;4864843;29;20049;-75
2022/10/31 06:04:27;;;;;;;20.77;13.68;;;11.10;99.90;;;;;;4881271;29;20088;-75
2022/10/31 06:06:52;;;;;;;19.33;13.57;;;11.10;99.90;;;;;;4880169;29;20071;-75
2022/10/31 06:09:18;;;;;;;19.75;13.35;;;11.10;99.90;;;;;;4881219;29;20045;-75
2022/10/31 06:11:44;;;;;;;21.60;13.00;;;11.10;99.90;;;;;;4881162;29;20053;-75
2022/10/31 06:14:10;;;;;;;22.58;13.13;;;11.10;99.90;;;;;;4879942;29;20053;-75
2022/10/31 06:16:35;;;;;;;19.77;13.68;;;11.10;99.90;;;;;;4881156;29;20049;-75
2022/10/31 06:19:01;;;;;;;17.67;12.25;;;11.10;99.90;;;;;;4864695;29;20061;-75
2022/10/31 06:21:27;;;;;;;20.83;12.52;;;11.10;99.90;;;;;;4879550;29;20056;-75
2022/10/31 06:23:53;;;;;;;19.17;13.00;;;11.10;99.90;;;;;;4881074;29;20049;-75
2022/10/31 06:26:18;;;;;;;25.02;13.65;;;11.10;99.90;;;;;;4879571;29;20049;-75
2022/10/31 06:28:44;;;;;;;21.65;13.02;;;11.00;99.90;;;;;;4864294;29;20097;-76
2022/10/31 06:31:10;;;;;;;21.50;13.13;;;11.00;99.90;;;;;;4880768;29;20065;-75
2022/10/31 06:33:35;;;;;;;20.25;13.65;;;11.00;99.90;;;;;;4879853;29;20045;-75
2022/10/31 06:36:01;;;;;;;20.63;13.50;;;11.00;99.90;;;;;;4879390;29;20088;-75
2022/10/31 06:38:27;;;;;;;18.80;12.77;;;11.00;99.90;;;;;;4864345;29;20083;-75
2022/10/31 06:40:54;;;;;;;21.38;13.32;;;11.00;99.90;;;;;;4880580;29;20109;-75
2022/10/31 06:43:21;;;;;;;20.98;13.88;;;11.00;99.90;;;;;;4879315;29;20566;-75
2022/10/31 06:45:46;;;;;;;18.80;12.55;;;10.90;99.90;;;;;;4879522;29;20057;-75
2022/10/31 06:48:12;;;;;;;19.95;12.60;;;11.00;99.90;;;;;;4879464;29;20056;-75
2022/10/31 06:50:38;;;;;;;17.98;12.15;;;11.00;99.90;;;;;;4864181;29;20124;-75
2022/10/31 06:53:04;;;;;;;20.38;12.75;;;11.00;99.90;;;;;;4879819;29;20049;-75
2022/10/31 06:55:29;;;;;;;17.08;12.65;;;10.90;99.90;;;;;;4863967;29;20064;-75
2022/10/31 06:57:57;;;;;;;18.02;13.07;;;10.90;99.90;;;;;;4879406;29;20076;-75
2022/10/31 07:00:25;;;;;;;17.40;12.13;;;11.00;99.90;;;;;;4880063;29;20638;-75
2022/10/31 07:02:59;;;;;;;15.65;10.65;;;11.10;99.90;;;;;;4879012;29;20506;-75
2022/10/31 07:05:25;;;;;;;21.33;12.80;;;11.00;99.90;;;;;;4864524;29;20140;-75
2022/10/31 07:07:56;;;;;;;16.10;12.00;;;11.00;99.90;;;;;;4880224;29;20095;-75
2022/10/31 07:10:23;;;;;;;16.38;11.35;;;11.00;99.90;;;;;;4879217;29;20462;-75
2022/10/31 07:12:53;;;;;;;17.75;12.25;;;11.00;99.90;;;;;;4878855;29;20494;-75
2022/10/31 07:15:19;;;;;;;22.90;13.15;;;11.00;99.90;;;;;;4879713;29;20397;-75
2022/10/31 07:17:45;;;;;;;20.88;12.70;;;11.00;99.90;;;;;;4879215;29;20124;-75
2022/10/31 07:20:10;;;;;;;18.83;12.20;;;11.10;99.90;;;;;;4879016;29;20129;-75
2022/10/31 07:22:37;;;;;;;17.08;12.48;;;11.20;99.90;;;;;;4862552;29;20060;-75
2022/10/31 07:25:03;;;;;;;19.50;12.23;;;11.10;99.90;;;;;;4878942;29;20105;-75
2022/10/31 07:27:34;;;;;;;20.63;12.63;;;11.10;99.90;;;;;;4878786;29;20422;-75
2022/10/31 07:30:00;;;;;;;19.35;12.82;;;11.10;99.90;;;;;;4863317;29;20060;-75
2022/10/31 07:32:26;;;;;;;20.63;12.52;;;11.10;99.90;;;;;;4878764;29;20044;-75
2022/10/31 07:34:51;;;;;;;18.42;12.25;;;11.10;99.90;;;;;;4878841;29;20045;-75
2022/10/31 07:37:17;;;;;;;18.80;12.52;;;11.10;99.90;;;;;;4866854;29;20057;-75
2022/10/31 07:39:43;;;;;;;16.92;12.35;;;11.10;99.90;;;;;;4869607;29;20057;-75
2022/10/31 07:42:08;;;;;;;19.23;12.85;;;11.10;99.90;;;;;;4884870;29;20471;-75
2022/10/31 07:44:34;;;;;;;17.60;13.00;;;11.10;99.90;;;;;;4884991;29;20064;-75
2022/10/31 07:47:00;;;;;;;17.40;13.02;;;11.10;99.90;;;;;;4886142;29;20044;-75
2022/10/31 07:49:25;;;;;;;18.33;13.45;;;11.10;99.90;;;;;;4884824;29;20053;-75
2022/10/31 07:51:51;;;;;;;18.98;13.32;;;11.10;99.90;;;;;;4884557;29;20048;-75
2022/10/31 07:54:17;;;;;;;18.70;13.18;;;11.10;99.90;;;;;;4885428;29;20060;-76
2022/10/31 07:56:42;;;;;;;19.52;13.45;;;11.10;99.90;;;;;;4885974;29;20059;-75
2022/10/31 07:59:08;;;;;;;19.00;13.57;;;11.10;99.90;;;;;;4884558;29;20045;-75
2022/10/31 08:01:34;;;;;;;19.35;13.77;;;11.20;99.90;;;;;;4886097;29;20096;-74
2022/10/31 08:03:59;;;;;;;22.20;13.82;;;11.20;99.90;;;;;;4884586;29;20053;-75
2022/10/31 08:06:25;;;;;;;20.38;15.18;;;11.20;99.90;;;;;;4885752;29;20501;-74
2022/10/31 08:08:51;;;;;;;20.85;13.90;;;11.20;99.90;;;;;;4885658;29;20522;-74
2022/10/31 08:11:16;;;;;;;22.73;16.20;;;11.30;99.90;;;;;;4885676;29;20379;-75
2022/10/31 08:13:42;;;;;;;22.35;14.40;;;11.30;99.90;;;;;;4884560;29;20067;-75
2022/10/31 08:16:08;;;;;;;19.60;13.93;;;11.40;99.90;;;;;;4884751;29;20057;-74
2022/10/31 08:18:34;;;;;;;19.98;13.57;;;11.50;99.90;;;;;;4885547;29;20529;-74
2022/10/31 08:21:00;;;;;;;15.30;12.95;;;11.50;99.90;;;;;;4885600;29;20149;-74
2022/10/31 08:23:25;;;;;;;19.33;13.95;;;11.60;99.90;;;;;;4868745;29;20053;-75
2022/10/31 08:25:51;;;;;;;23.08;13.88;;;11.60;99.90;;;;;;4884454;29;20152;-74
2022/10/31 08:28:17;;;;;;;17.20;13.63;;;11.60;99.90;;;;;;4885984;29;20096;-75
2022/10/31 08:30:42;;;;;;;17.77;14.05;;;11.70;99.90;;;;;;4884292;29;20052;-75
2022/10/31 08:33:14;;;;;;;20.95;13.65;;;11.70;99.90;;;;;;4884418;29;20085;-74
2022/10/31 08:35:41;;;;;;;19.45;13.85;;;11.70;99.90;;;;;;4885151;29;20360;-74
2022/10/31 08:38:09;;;;;;;18.42;13.70;;;11.70;99.90;;;;;;4884510;29;20371;-74
2022/10/31 08:40:35;;;;;;;22.60;14.90;;;11.70;99.90;;;;;;4884302;29;20092;-74
2022/10/31 08:43:03;;;;;;;19.38;14.48;;;11.70;99.90;;;;;;4884283;29;20049;-73
2022/10/31 08:45:30;;;;;;;19.10;14.23;;;11.80;99.90;;;;;;4885596;29;20061;-73
2022/10/31 08:47:57;;;;;;;20.05;13.55;;;11.80;99.90;;;;;;4883459;29;20049;-74
2022/10/31 08:50:23;;;;;;;21.23;15.25;;;11.90;99.90;;;;;;4882488;29;20041;-74
2022/10/31 08:52:49;;;;;;;21.42;14.88;;;11.90;99.90;;;;;;4881243;29;20052;-73
2022/10/31 08:55:15;;;;;;;18.52;14.02;;;11.90;99.90;;;;;;4882787;29;20555;-73
2022/10/31 08:57:40;;;;;;;17.77;12.63;;;12.00;99.90;;;;;;4865982;29;20059;-74
2022/10/31 09:00:07;;;;;;;15.82;13.30;;;12.10;99.90;;;;;;4881482;29;20049;-74
2022/10/31 09:02:32;;;;;;;19.02;12.13;;;12.10;99.90;;;;;;4881224;29;20482;-73
2022/10/31 09:04:58;;;;;;;17.20;13.13;;;12.20;99.90;;;;;;4881382;29;20060;-73
2022/10/31 09:07:24;;;;;;;17.25;12.88;;;12.20;99.90;;;;;;4865937;29;20049;-74
2022/10/31 09:09:50;;;;;;;18.35;11.60;;;12.30;99.90;;;;;;4881079;29;20128;-73
2022/10/31 09:12:15;;;;;;;17.92;13.05;;;12.30;99.90;;;;;;4850465;29;20053;-74
2022/10/31 09:14:41;;;;;;;17.65;11.43;;;12.30;99.90;;;;;;4881009;29;20049;-75
2022/10/31 09:17:07;;;;;;;16.38;12.70;;;12.40;99.90;;;;;;4866316;29;20076;-72
2022/10/31 09:19:32;;;;;;;16.25;11.82;;;12.40;99.90;;;;;;4880827;29;20065;-73
2022/10/31 09:21:58;;;;;;;16.83;12.20;;;12.40;99.90;;;;;;4881655;29;20580;-73
2022/10/31 09:24:24;;;;;;;16.80;11.95;;;12.40;99.90;;;;;;4881937;29;20048;-74
2022/10/31 09:26:49;;;;;;;14.60;11.35;;;12.40;99.90;;;;;;4865510;29;20105;-72
2022/10/31 09:29:15;;;;;;;17.73;12.57;;;12.50;99.90;;;;;;4865224;29;20049;-73
2022/10/31 09:31:41;;;;;;;19.73;12.70;;;12.50;99.90;;;;;;4880719;29;20132;-73
2022/10/31 09:34:06;;;;;;;17.02;11.73;;;12.50;99.90;;;;;;4882335;29;20045;-75
2022/10/31 09:36:32;;;;;;;16.83;12.20;;;12.50;99.90;;;;;;4880798;29;20439;-76
2022/10/31 09:38:58;;;;;;;16.42;11.88;;;12.60;99.90;;;;;;4880360;29;20045;-76
2022/10/31 09:41:51;;;;;;;16.05;12.10;;;12.60;99.90;;;;;;4880180;29;20045;-76
2022/10/31 09:44:31;;;;;;;;;;;12.60;99.90;;;;;;4881374;29;20638;-74
2022/10/31 09:47:28;;;;;;;15.23;11.75;;;12.70;99.90;;;;;;4879094;29;19924;-75
2022/10/31 09:49:56;;;;;;;15.80;11.88;;;12.70;99.90;;;;;;4880073;29;20041;-77
2022/10/31 09:52:32;;;;;;;17.67;11.68;;;12.80;99.90;;;;;;4879516;29;20119;-76
2022/10/31 09:55:13;;;;;;;19.83;12.55;;;12.80;99.90;;;;;;4878108;29;20053;-76
2022/10/31 09:57:41;;;;;;;16.25;11.82;;;12.90;99.90;;;;;;4878079;29;20128;-77
2022/10/31 10:00:15;;;;;;;15.88;11.95;;;13.00;99.90;;;;;;4879681;29;20053;-76
2022/10/31 10:02:44;;;;;;;16.48;11.43;;;13.00;99.90;;;;;;4878380;29;20045;-77
2022/10/31 10:05:12;;;;;;;17.63;11.23;;;13.10;99.90;;;;;;4880857;29;20044;-77
2022/10/31 10:07:58;;;;;;;18.27;11.10;;;13.20;99.90;;;;;;4879728;29;20147;-76
2022/10/31 10:10:48;;;;;;;15.65;9.57;;;13.20;99.90;;;;;;4878430;29;20666;-76
2022/10/31 10:13:32;;;;;;;17.40;10.10;;;13.30;99.90;;;;;;4878669;29;20045;-76
2022/10/31 10:16:20;;;;;;;16.55;10.07;;;13.30;99.90;;;;;;4877887;29;20057;-77
2022/10/31 10:18:54;;;;;;;15.02;10.15;;;13.40;99.90;;;;;;4878431;29;20049;-76
2022/10/31 10:21:50;;;;;;;14.15;9.15;;;13.40;99.90;;;;;;4878120;29;20056;-76
2022/10/31 10:24:28;;;;;;;13.93;8.48;;;13.50;99.90;;;;;;4861714;29;20087;-76
2022/10/31 10:27:33;;;;;;;13.85;9.20;;;13.50;99.90;;;;;;4877244;29;20053;-76
2022/10/31 10:30:15;;;;;;;15.90;10.10;;;13.50;99.90;;;;;;4878364;29;20060;-75
2022/10/31 10:32:46;;;;;;;13.73;8.77;;;13.60;99.90;;;;;;4875242;29;20128;-74
2022/10/31 10:35:34;;;;;;;14.40;8.45;;;13.60;99.90;;;;;;4879539;29;20445;-74
2022/10/31 10:38:14;;;;;;;12.40;8.20;;;13.60;99.90;;;;;;4877589;29;20398;-74
2022/10/31 10:40:41;;;;;;;12.82;8.43;;;13.70;99.90;;;;;;4875839;29;20503;-74
2022/10/31 10:43:33;;;;;;;12.85;8.77;;;13.70;99.90;;;;;;4878326;29;20052;-73
2022/10/31 10:49:13;;;;;;;12.57;7.70;;;13.80;99.90;;;;;;4875257;29;20076;-74
2022/10/31 10:51:56;;;;;;;12.93;7.43;;;13.80;99.90;;;;;;4871246;29;20394;-74
2022/10/31 10:54:56;;;;;;;11.30;7.75;;;13.80;99.90;;;;;;4860824;29;20099;-74
2022/10/31 10:57:30;;;;;;;13.30;8.35;;;13.90;99.90;;;;;;4862658;29;20116;-74
2022/10/31 11:00:12;;;;;;;15.02;8.55;;;13.90;99.90;;;;;;4875288;29;20390;-75
2022/10/31 11:02:38;;;;;;;12.55;8.57;;;13.90;99.90;;;;;;4855375;29;20057;-74
2022/10/31 11:05:45;;;;;;;12.35;8.02;;;14.00;99.90;;;;;;4874671;29;20049;-75
2022/10/31 11:08:22;;;;;;;13.57;9.00;;;14.00;99.90;;;;;;4837811;29;20076;-75
2022/10/31 11:10:57;;;;;;;15.57;8.95;;;14.00;99.90;;;;;;4874603;29;20407;-73
2022/10/31 11:13:24;;;;;;;15.77;9.43;;;14.10;99.90;;;;;;4876409;29;20478;-74
2022/10/31 11:16:01;;;;;;;17.55;9.35;;;14.10;99.90;;;;;;4875092;29;20084;-74
2022/10/31 11:18:30;;;;;;;14.85;9.23;;;14.20;99.90;;;;;;4877616;29;21780;-74
2022/10/31 11:20:59;;;;;;;13.70;8.98;;;14.20;99.90;;;;;;4872238;29;20494;-74
2022/10/31 11:23:27;;;;;;;16.65;9.57;;;14.30;99.90;;;;;;4877187;29;20041;-74
2022/10/31 11:26:02;;;;;;;14.07;9.10;;;14.30;99.90;;;;;;4861985;29;20482;-74
2022/10/31 11:28:29;;;;;;;13.85;8.55;;;14.30;99.90;;;;;;4876547;29;20119;-74
2022/10/31 11:30:59;;;;;;;13.00;8.10;;;14.30;99.90;;;;;;4879111;29;20085;-73
2022/10/31 11:33:35;;;;;;;12.20;8.15;;;14.30;99.90;;;;;;4878013;29;20486;-74
2022/10/31 11:36:10;;;;;;;12.02;8.20;;;14.30;99.90;;;;;;4877889;29;20529;-73
2022/10/31 11:38:42;;;;;;;11.55;8.60;;;14.30;99.90;;;;;;4878061;29;20136;-74
2022/10/31 11:41:10;;;;;;;13.95;9.05;;;14.30;99.90;;;;;;4878046;29;20529;-74
2022/10/31 11:43:37;;;;;;;11.63;8.23;;;14.40;99.90;;;;;;4878037;29;20461;-74
2022/10/31 11:46:11;;;;;;;13.25;8.95;;;14.40;99.90;;;;;;4878155;29;20447;-73
2022/10/31 11:48:37;;;;;;;12.15;7.65;;;14.50;99.90;;;;;;4877848;29;20060;-74
2022/10/31 11:51:04;;;;;;;12.35;7.40;;;14.60;99.90;;;;;;4879117;29;20408;-74
2022/10/31 11:53:33;;;;;;;13.82;8.05;;;14.60;99.90;;;;;;4861958;29;20517;-74
2022/10/31 11:56:10;;;;;;;10.55;7.25;;;14.70;99.90;;;;;;4878988;29;20053;-74
2022/10/31 11:58:35;;;;;;;11.80;6.90;;;14.70;99.90;;;;;;4875906;29;20072;-74
2022/10/31 12:01:01;;;;;;;15.27;7.38;;;14.80;99.90;;;;;;4877563;29;20048;-75
2022/10/31 12:03:56;;;;;;;12.13;5.25;;;14.80;99.90;;;;;;4878072;29;20052;-75
2022/10/31 12:06:28;;;;;;;10.68;4.38;;;14.90;99.90;;;;;;4875082;29;20057;-74
2022/10/31 12:08:53;;;;;;;9.20;4.88;;;14.90;99.90;;;;;;4879065;29;20053;-74
2022/10/31 12:11:39;;;;;;;8.20;4.60;;;14.90;99.90;;;;;;4878422;29;20089;-73
2022/10/31 12:14:21;;;;;;;9.60;5.63;;;14.90;99.90;;;;;;4862216;29;20056;-74
2022/10/31 12:16:50;;;;;;;11.63;5.20;;;14.90;99.90;;;;;;4878743;29;20472;-74
2022/10/31 12:19:37;;;;;;;8.80;4.97;;;14.90;99.90;;;;;;4861985;29;20410;-74
2022/10/31 12:22:27;;;;;;;10.40;5.95;;;14.90;99.90;;;;;;4877379;29;20192;-75
2022/10/31 12:25:21;;;;;;;8.68;5.03;;;14.90;99.90;;;;;;4882469;29;20053;-73
2022/10/31 12:28:12;;;;;;;13.10;5.53;;;14.90;99.90;;;;;;4880186;29;20151;-76
2022/10/31 12:31:16;;;;;;;9.82;5.38;;;15.00;99.90;;;;;;4880695;29;20052;-74
2022/10/31 12:33:44;;;;;;;;;;;15.00;99.90;;;;;;4882289;29;20475;-74
2022/10/31 12:36:16;;;;;;;9.05;4.65;;;15.00;99.90;;;;;;4882203;29;19927;-73
2022/10/31 12:39:17;;;;;;;11.05;5.13;;;15.10;99.90;;;;;;4880949;29;20435;-74
2022/10/31 12:41:54;;;;;;;10.20;5.95;;;15.10;99.90;;;;;;4879947;29;20057;-76
2022/10/31 12:45:19;;;;;;;8.80;5.30;;;15.20;99.90;;;;;;4863222;29;20053;-73
2022/10/31 12:48:04;;;;;;;8.90;4.45;;;15.20;99.90;;;;;;4872420;29;20060;-74
2022/10/31 12:50:55;;;;;;;9.85;5.05;;;15.20;99.90;;;;;;4880539;29;20049;-74
2022/10/31 12:53:38;;;;;;;9.32;4.70;;;15.20;99.90;;;;;;4880234;29;20145;-74